Time;durP1;ratioP1;P1;durP2;ratioP2;P2;SDS_P1;SDS_P2;PMS_P1;PMS_P2;Temp;Humidity;BMP_temperature;BMP_pressure;BME280_temperature;BME280_humidity;BME280_pressure;Samples;Min_cycle;Max_cycle;Signal;HPM_P1;HPM_P2
2023/07/16 00:00:22;;;;;;;8.35;2.42;;;16.60;83.70;;;;;;4997805;28;20026;-70
2023/07/16 00:02:50;;;;;;;13.48;2.60;;;16.70;83.70;;;;;;4985603;28;20388;-70
2023/07/16 00:05:17;;;;;;;8.52;2.28;;;16.90;82.90;;;;;;4981503;28;20105;-69
2023/07/16 00:07:45;;;;;;;7.82;1.80;;;16.90;84.10;;;;;;4988016;28;20125;-71
2023/07/16 00:10:12;;;;;;;6.22;1.73;;;17.00;84.10;;;;;;4979839;28;20027;-70
2023/07/16 00:12:40;;;;;;;10.10;2.03;;;16.90;84.80;;;;;;4990790;28;20031;-72
2023/07/16 00:15:08;;;;;;;8.40;2.22;;;17.00;84.50;;;;;;4983539;28;20068;-70
2023/07/16 00:17:36;;;;;;;13.60;2.47;;;17.00;85.00;;;;;;4984572;28;20031;-69
2023/07/16 00:20:05;;;;;;;15.45;2.15;;;17.10;84.80;;;;;;4976700;28;20120;-70
2023/07/16 00:22:33;;;;;;;9.98;2.15;;;17.10;85.70;;;;;;4984627;28;20031;-71
2023/07/16 00:25:00;;;;;;;7.55;1.90;;;17.00;85.20;;;;;;4979549;28;20061;-73
2023/07/16 00:27:28;;;;;;;12.85;2.00;;;17.00;85.90;;;;;;4987614;28;20456;-71
2023/07/16 00:29:55;;;;;;;10.68;2.20;;;17.00;86.00;;;;;;4991707;28;20018;-70
2023/07/16 00:32:22;;;;;;;12.48;2.30;;;17.00;86.50;;;;;;4985185;28;20081;-72
2023/07/16 00:34:49;;;;;;;18.00;2.42;;;16.90;86.70;;;;;;4980271;28;20535;-71
2023/07/16 00:37:17;;;;;;;9.82;2.00;;;16.90;87.30;;;;;;4987834;28;20089;-71
2023/07/16 00:39:44;;;;;;;9.10;2.17;;;17.10;86.10;;;;;;4985729;28;20535;-70
2023/07/16 00:42:12;;;;;;;13.20;2.05;;;17.00;86.80;;;;;;5008983;28;20068;-70
2023/07/16 00:44:39;;;;;;;11.75;2.20;;;17.00;87.00;;;;;;4988063;28;20058;-70
2023/07/16 00:47:06;;;;;;;14.13;2.58;;;17.00;87.70;;;;;;5001709;28;20120;-71
2023/07/16 00:49:34;;;;;;;13.85;2.70;;;17.10;87.40;;;;;;4982824;28;20034;-70
2023/07/16 00:52:02;;;;;;;8.82;2.13;;;17.30;86.90;;;;;;4989206;28;21484;-70
2023/07/16 00:54:31;;;;;;;10.43;2.58;;;17.40;86.80;;;;;;4986329;28;20022;-71
2023/07/16 00:56:59;;;;;;;10.57;2.22;;;17.60;86.80;;;;;;4991263;28;20027;-71
2023/07/16 00:59:26;;;;;;;13.48;1.77;;;17.90;85.10;;;;;;4985455;28;20019;-71
2023/07/16 01:01:53;;;;;;;10.40;2.00;;;18.20;84.50;;;;;;4993481;28;20368;-70
2023/07/16 01:04:20;;;;;;;14.10;2.38;;;18.30;83.50;;;;;;4981266;28;20030;-71
2023/07/16 01:06:54;;;;;;;14.77;2.33;;;18.40;82.90;;;;;;5003997;28;20120;-73
2023/07/16 01:09:22;;;;;;;21.88;3.92;;;18.40;84.00;;;;;;4988101;28;20121;-70
2023/07/16 01:11:50;;;;;;;19.15;2.65;;;18.40;83.00;;;;;;4997641;28;20030;-70
2023/07/16 01:14:19;;;;;;;13.15;2.00;;;18.60;81.70;;;;;;4975169;28;20026;-70
2023/07/16 01:16:46;;;;;;;8.82;2.30;;;18.70;81.30;;;;;;4987187;28;20031;-70
2023/07/16 01:19:14;;;;;;;15.07;3.47;;;18.70;81.20;;;;;;4978963;28;20483;-70
2023/07/16 01:21:50;;;;;;;11.13;2.35;;;18.60;81.20;;;;;;4977647;28;20057;-71
2023/07/16 01:25:00;;;;;;;14.88;2.30;;;18.50;82.40;;;;;;4993851;28;20165;-70
2023/07/16 01:27:57;;;;;;;12.95;2.40;;;18.70;80.50;;;;;;4981273;28;20126;-68
2023/07/16 01:30:27;;;;;;;14.20;2.75;;;18.70;80.20;;;;;;4981894;28;20035;-71
2023/07/16 01:32:55;;;;;;;14.65;2.28;;;18.70;80.80;;;;;;4957768;28;20030;-70
2023/07/16 01:35:23;;;;;;;12.52;1.98;;;18.60;80.90;;;;;;4946991;28;20027;-70
2023/07/16 01:37:50;;;;;;;13.48;2.08;;;18.70;80.50;;;;;;5002662;28;22071;-70
2023/07/16 01:40:18;;;;;;;18.23;3.03;;;18.70;80.90;;;;;;4978329;28;20039;-70
2023/07/16 01:42:45;;;;;;;11.15;2.05;;;18.60;81.20;;;;;;5004704;28;20031;-70
2023/07/16 01:45:12;;;;;;;15.82;2.53;;;18.40;82.10;;;;;;4980284;28;20026;-70
2023/07/16 01:47:50;;;;;;;14.93;2.42;;;18.60;81.90;;;;;;4985723;28;20070;-71
2023/07/16 01:50:18;;;;;;;;;;;18.50;82.50;;;;;;4985162;28;20050;-71
2023/07/16 01:52:45;;;;;;;16.50;2.60;;;18.30;83.50;;;;;;4986332;28;19910;-70
2023/07/16 07:56:46;;;;;;;19.40;6.57;;;15.60;97.10;;;;;;4935389;28;20525;-72
2023/07/16 07:59:13;;;;;;;12.52;4.28;;;15.60;97.10;;;;;;4957531;28;20078;-73
2023/07/16 08:01:41;;;;;;;16.92;5.22;;;15.60;97.10;;;;;;4961627;28;20543;-71
2023/07/16 08:04:08;;;;;;;17.98;5.43;;;15.50;97.60;;;;;;4958341;28;20037;-73
2023/07/16 08:06:35;;;;;;;19.75;5.20;;;15.50;97.40;;;;;;4972770;28;20504;-71
2023/07/16 08:09:03;;;;;;;17.30;5.63;;;15.50;97.50;;;;;;4963406;28;20031;-71
2023/07/16 08:11:30;;;;;;;20.83;6.50;;;15.50;97.30;;;;;;4953406;29;20102;-71
2023/07/16 08:13:57;;;;;;;19.98;6.93;;;15.40;97.50;;;;;;4951773;28;20385;-71
2023/07/16 08:16:25;;;;;;;18.02;7.85;;;15.40;97.60;;;;;;4956482;28;20034;-72
2023/07/16 08:18:52;;;;;;;22.88;7.65;;;15.40;97.80;;;;;;4954034;28;20031;-71
2023/07/16 08:21:19;;;;;;;21.48;7.82;;;15.30;97.90;;;;;;4965693;28;20429;-71
2023/07/16 08:23:52;;;;;;;18.42;6.70;;;15.30;98.00;;;;;;4960165;28;20027;-71
2023/07/16 08:26:19;;;;;;;20.45;7.43;;;15.30;98.10;;;;;;4952751;28;20072;-72
2023/07/16 08:28:47;;;;;;;20.60;6.50;;;15.20;98.10;;;;;;4953987;28;20030;-72
2023/07/16 08:31:14;;;;;;;12.90;5.95;;;15.20;98.30;;;;;;4952025;28;20080;-72
2023/07/16 08:33:42;;;;;;;15.50;5.82;;;15.20;98.40;;;;;;4950957;28;20027;-70
2023/07/16 08:36:10;;;;;;;17.98;6.10;;;15.20;98.40;;;;;;4948131;28;20047;-72
2023/07/16 08:38:38;;;;;;;15.88;5.68;;;15.20;98.40;;;;;;4953671;28;20019;-72
2023/07/16 08:41:05;;;;;;;16.20;5.80;;;15.20;98.50;;;;;;4950672;28;20106;-72
2023/07/16 08:43:34;;;;;;;17.42;6.10;;;15.20;98.60;;;;;;4952866;28;20019;-71
2023/07/16 08:46:02;;;;;;;19.23;5.97;;;15.10;98.50;;;;;;4950691;28;20114;-72
2023/07/16 08:48:30;;;;;;;16.33;6.15;;;15.20;98.60;;;;;;4951470;28;20047;-71
2023/07/16 08:51:01;;;;;;;19.05;5.63;;;15.30;98.40;;;;;;4948041;28;20036;-72
2023/07/16 08:53:30;;;;;;;15.85;4.93;;;15.30;98.40;;;;;;4954246;28;20023;-71
2023/07/16 08:55:57;;;;;;;19.75;5.40;;;15.40;98.10;;;;;;4957002;28;20542;-71
2023/07/16 08:58:25;;;;;;;19.10;5.57;;;15.30;98.10;;;;;;4953114;28;20966;-72
2023/07/16 09:00:53;;;;;;;19.42;5.32;;;15.30;98.30;;;;;;4956448;28;20477;-71
2023/07/16 09:03:20;;;;;;;18.40;5.40;;;15.30;98.10;;;;;;4947218;28;20082;-72
2023/07/16 09:05:48;;;;;;;17.42;5.03;;;15.20;98.30;;;;;;4954947;28;20050;-74
2023/07/16 09:08:16;;;;;;;15.90;5.55;;;15.20;98.30;;;;;;4943521;28;20054;-70
2023/07/16 09:10:44;;;;;;;13.52;5.03;;;15.20;98.20;;;;;;4954019;28;20034;-70
2023/07/16 09:13:11;;;;;;;14.95;4.72;;;15.10;98.30;;;;;;4947143;28;20035;-72
2023/07/16 09:15:40;;;;;;;14.20;4.47;;;15.10;98.40;;;;;;4952713;28;20062;-70
2023/07/16 09:18:10;;;;;;;16.52;5.38;;;15.20;98.40;;;;;;4948449;28;20086;-70
2023/07/16 09:20:39;;;;;;;21.33;8.80;;;15.10;98.30;;;;;;4951287;28;20034;-70
2023/07/16 09:23:08;;;;;;;31.77;14.70;;;15.10;98.40;;;;;;4951475;28;20081;-70
2023/07/16 09:25:36;;;;;;;23.30;9.02;;;15.00;98.50;;;;;;4949185;28;20034;-71
2023/07/16 09:28:05;;;;;;;23.08;9.10;;;15.00;98.50;;;;;;4950140;28;20047;-70
2023/07/16 09:30:35;;;;;;;22.00;9.10;;;15.10;98.50;;;;;;4954006;28;20062;-70
2023/07/16 09:33:18;;;;;;;16.73;5.93;;;15.10;98.50;;;;;;4949158;28;20133;-70
2023/07/16 09:35:48;;;;;;;16.65;5.40;;;15.10;98.40;;;;;;4948149;28;20039;-72
2023/07/16 09:38:15;;;;;;;15.60;5.05;;;15.00;98.50;;;;;;4950364;28;20023;-70
2023/07/16 09:40:43;;;;;;;13.82;4.43;;;15.10;98.40;;;;;;4952715;28;20066;-71
2023/07/16 09:43:12;;;;;;;18.60;5.18;;;15.20;98.10;;;;;;4952762;28;20761;-70
2023/07/16 09:45:39;;;;;;;18.60;5.00;;;15.10;98.30;;;;;;4944780;28;20392;-71
2023/07/16 09:48:08;;;;;;;14.95;5.15;;;15.10;98.30;;;;;;4935883;28;20035;-71
2023/07/16 09:50:37;;;;;;;18.55;5.38;;;15.10;98.30;;;;;;4952693;28;20432;-72
2023/07/16 09:53:08;;;;;;;17.75;6.80;;;15.00;98.50;;;;;;4953074;28;20042;-71
2023/07/16 09:55:36;;;;;;;19.00;7.18;;;15.00;98.30;;;;;;4951990;28;20051;-71
2023/07/16 09:58:09;;;;;;;20.20;7.50;;;14.90;98.50;;;;;;4950021;28;20539;-70
2023/07/16 10:00:38;;;;;;;17.83;6.18;;;15.00;98.50;;;;;;4957748;28;20031;-71
2023/07/16 10:03:09;;;;;;;13.82;6.32;;;15.00;98.30;;;;;;4950081;28;20482;-72
2023/07/16 10:05:38;;;;;;;18.67;6.05;;;15.00;98.20;;;;;;4953831;28;20041;-72
2023/07/16 10:08:15;;;;;;;20.10;6.40;;;14.90;98.40;;;;;;4950764;28;20454;-73
2023/07/16 10:10:48;;;;;;;18.25;7.20;;;14.80;98.40;;;;;;4949017;28;20491;-73
2023/07/16 10:13:16;;;;;;;16.40;6.68;;;14.90;98.60;;;;;;4964467;28;20032;-74
2023/07/16 10:15:54;;;;;;;18.88;7.38;;;15.30;98.00;;;;;;4950469;28;20473;-71
2023/07/16 10:18:33;;;;;;;18.90;6.95;;;15.30;97.70;;;;;;4951747;28;20039;-73
2023/07/16 10:21:08;;;;;;;18.80;7.00;;;15.10;97.90;;;;;;4945689;28;20039;-72
2023/07/16 10:23:41;;;;;;;24.85;8.25;;;14.90;98.20;;;;;;4926695;28;20394;-73
2023/07/16 10:26:13;;;;;;;27.92;9.60;;;14.90;98.40;;;;;;4952427;28;20042;-72
2023/07/16 10:28:41;;;;;;;30.65;10.65;;;14.80;98.70;;;;;;4955215;28;20078;-72
2023/07/16 10:31:25;;;;;;;20.50;8.73;;;14.70;98.90;;;;;;4952037;28;20050;-72
2023/07/16 10:34:04;;;;;;;18.33;7.97;;;14.70;99.10;;;;;;4946286;28;20119;-70
2023/07/16 10:36:38;;;;;;;18.60;7.90;;;14.70;99.20;;;;;;4947485;28;20371;-72
2023/07/16 10:39:06;;;;;;;22.40;7.07;;;14.60;99.30;;;;;;4943840;28;20050;-72
2023/07/16 10:41:34;;;;;;;19.52;7.47;;;14.60;99.50;;;;;;4946914;28;20110;-72
2023/07/16 10:44:01;;;;;;;18.75;7.13;;;14.60;99.50;;;;;;4949840;28;20035;-71
2023/07/16 10:46:29;;;;;;;16.70;6.38;;;14.50;99.60;;;;;;4948365;28;20428;-72
2023/07/16 10:48:56;;;;;;;20.20;6.35;;;14.60;99.50;;;;;;4950285;28;20019;-72
2023/07/16 10:51:27;;;;;;;20.13;6.13;;;14.60;99.60;;;;;;4951666;28;20472;-70
2023/07/16 10:53:56;;;;;;;15.73;5.95;;;14.60;99.60;;;;;;4949185;28;20027;-72
2023/07/16 10:56:24;;;;;;;14.65;5.53;;;14.50;99.60;;;;;;4948403;28;20043;-72
2023/07/16 10:58:52;;;;;;;15.90;5.85;;;14.50;99.70;;;;;;4965024;28;20484;-72
2023/07/16 11:01:20;;;;;;;19.80;5.50;;;14.40;99.70;;;;;;4952924;28;20051;-71
2023/07/16 11:03:47;;;;;;;15.07;6.32;;;14.50;99.80;;;;;;4948219;28;20474;-72
2023/07/16 11:06:16;;;;;;;13.30;5.90;;;14.40;99.80;;;;;;4953580;28;20070;-72
2023/07/16 11:08:44;;;;;;;18.70;6.50;;;14.40;99.90;;;;;;4953231;28;20116;-71
2023/07/16 11:11:11;;;;;;;12.73;4.95;;;14.40;99.90;;;;;;4949895;28;20086;-70
2023/07/16 11:13:38;;;;;;;16.33;6.03;;;14.30;99.90;;;;;;4949936;28;20026;-71
2023/07/16 11:16:10;;;;;;;14.27;5.75;;;14.40;99.90;;;;;;4959797;28;20106;-71
2023/07/16 11:18:37;;;;;;;18.25;5.70;;;14.40;99.90;;;;;;4955124;28;20038;-72
2023/07/16 11:21:05;;;;;;;18.20;5.53;;;14.50;99.90;;;;;;4955618;28;20037;-72
2023/07/16 11:23:36;;;;;;;13.07;5.65;;;14.50;99.80;;;;;;4951806;28;20101;-72
2023/07/16 11:26:04;;;;;;;16.92;5.60;;;14.50;99.80;;;;;;4942440;28;20483;-73
2023/07/16 11:28:44;;;;;;;22.55;6.43;;;14.40;99.80;;;;;;4948150;28;20039;-73
2023/07/16 11:31:16;;;;;;;15.82;5.72;;;14.30;99.90;;;;;;4950441;28;20046;-71
2023/07/16 11:33:48;;;;;;;15.93;5.68;;;14.40;99.90;;;;;;4955408;28;20030;-71
2023/07/16 11:36:19;;;;;;;19.33;6.13;;;14.40;99.90;;;;;;4948653;28;20023;-72
2023/07/16 11:38:48;;;;;;;13.90;5.07;;;14.40;99.90;;;;;;4952617;28;20530;-70
2023/07/16 11:41:20;;;;;;;18.23;5.45;;;14.40;99.60;;;;;;4946672;28;20039;-72
2023/07/16 11:43:47;;;;;;;13.70;4.90;;;14.40;99.70;;;;;;4954499;28;20024;-72
2023/07/16 11:46:17;;;;;;;22.58;6.13;;;14.30;99.80;;;;;;4954285;28;20085;-72
2023/07/16 11:48:45;;;;;;;14.73;6.15;;;14.30;99.90;;;;;;4944795;28;20550;-74
2023/07/16 11:51:19;;;;;;;15.40;6.07;;;14.30;99.90;;;;;;4943110;28;20510;-72
2023/07/16 11:53:46;;;;;;;14.90;6.00;;;14.30;99.90;;;;;;4950790;28;20126;-72
2023/07/16 11:56:14;;;;;;;17.10;6.43;;;14.30;99.90;;;;;;4956087;28;20109;-71
2023/07/16 11:58:42;;;;;;;16.20;7.00;;;14.30;99.90;;;;;;4956069;28;20445;-72
2023/07/16 12:01:10;;;;;;;15.50;6.95;;;14.20;99.90;;;;;;4946141;28;20035;-72
2023/07/16 12:03:37;;;;;;;17.23;6.85;;;14.20;99.90;;;;;;4948921;28;20038;-72
2023/07/16 12:06:04;;;;;;;22.10;7.35;;;14.20;99.90;;;;;;4950304;28;20118;-72
2023/07/16 12:08:32;;;;;;;16.75;7.78;;;14.20;99.90;;;;;;4953337;28;20588;-71
2023/07/16 12:10:59;;;;;;;22.98;7.95;;;14.30;99.90;;;;;;4950903;28;20023;-71
2023/07/16 12:13:27;;;;;;;20.08;9.23;;;14.30;99.90;;;;;;4931877;28;20032;-72
2023/07/16 12:15:55;;;;;;;17.88;8.27;;;14.40;99.90;;;;;;4954569;28;20050;-71
2023/07/16 12:18:23;;;;;;;23.33;9.10;;;14.30;99.90;;;;;;4943091;28;20034;-72
2023/07/16 12:20:50;;;;;;;26.55;8.45;;;14.40;99.90;;;;;;4951904;28;20038;-73
2023/07/16 12:23:17;;;;;;;27.20;9.70;;;14.40;99.70;;;;;;4940525;28;20501;-71
2023/07/16 12:25:45;;;;;;;18.67;8.73;;;14.50;99.60;;;;;;4950177;28;20034;-72
2023/07/16 12:28:12;;;;;;;18.77;9.00;;;14.40;99.70;;;;;;4950695;28;20493;-72
2023/07/16 12:30:40;;;;;;;21.98;9.48;;;14.30;99.70;;;;;;4966447;28;20027;-72
2023/07/16 12:33:07;;;;;;;19.52;8.70;;;14.30;99.80;;;;;;4949602;28;20034;-71
2023/07/16 12:35:35;;;;;;;30.65;9.82;;;14.30;99.90;;;;;;4948091;28;20031;-71
2023/07/16 12:38:02;;;;;;;23.33;10.25;;;14.30;99.90;;;;;;4953154;28;20035;-71
2023/07/16 12:40:30;;;;;;;20.05;9.23;;;14.20;99.90;;;;;;4949165;28;20110;-71
2023/07/16 12:42:58;;;;;;;21.55;9.23;;;14.20;99.90;;;;;;4955466;28;20035;-73
2023/07/16 12:45:25;;;;;;;19.27;9.32;;;14.20;99.90;;;;;;4950086;28;20028;-72
2023/07/16 12:47:52;;;;;;;21.50;9.23;;;14.20;99.90;;;;;;4954324;28;20043;-72
2023/07/16 12:50:20;;;;;;;21.73;8.85;;;14.30;99.90;;;;;;4949254;28;20034;-71
2023/07/16 12:52:47;;;;;;;21.95;8.43;;;14.30;99.90;;;;;;4950977;28;20031;-71
2023/07/16 12:55:15;;;;;;;18.65;8.15;;;14.30;99.80;;;;;;4951438;28;20035;-71
2023/07/16 12:57:42;;;;;;;17.45;8.27;;;14.20;99.80;;;;;;4951731;28;20031;-70
2023/07/16 13:00:10;;;;;;;18.80;8.30;;;14.30;99.80;;;;;;4954346;28;20055;-72
2023/07/16 13:02:39;;;;;;;20.38;8.48;;;14.40;99.60;;;;;;4953954;28;20027;-72
2023/07/16 13:05:06;;;;;;;26.65;10.48;;;14.40;99.40;;;;;;4938131;28;20058;-71
2023/07/16 13:07:34;;;;;;;31.52;12.57;;;14.30;99.50;;;;;;4954429;28;20042;-72
2023/07/16 13:10:02;;;;;;;28.88;11.40;;;14.20;99.70;;;;;;4958170;28;20036;-72
2023/07/16 13:12:29;;;;;;;22.08;11.35;;;14.20;99.80;;;;;;4958483;28;20495;-70
2023/07/16 13:14:57;;;;;;;31.08;12.88;;;14.10;99.90;;;;;;4943517;28;20122;-70
2023/07/16 13:17:24;;;;;;;22.42;11.52;;;14.10;99.90;;;;;;4955618;28;20625;-72
2023/07/16 13:19:52;;;;;;;24.40;10.98;;;14.20;99.90;;;;;;4940309;28;20507;-71
2023/07/16 13:22:19;;;;;;;20.25;10.30;;;14.20;99.80;;;;;;4952886;28;20026;-71
2023/07/16 13:24:47;;;;;;;24.67;10.27;;;14.10;99.90;;;;;;4953606;28;20070;-71
2023/07/16 13:27:22;;;;;;;28.25;10.88;;;14.10;99.90;;;;;;4958752;28;20523;-71
2023/07/16 13:29:49;;;;;;;20.98;9.05;;;14.20;99.90;;;;;;4955251;28;20085;-72
2023/07/16 13:32:20;;;;;;;24.13;9.88;;;14.20;99.80;;;;;;4953255;28;20418;-71
2023/07/16 13:34:47;;;;;;;19.52;8.77;;;14.10;99.90;;;;;;4955821;28;20089;-72
2023/07/16 13:37:15;;;;;;;23.48;8.70;;;14.10;99.80;;;;;;4955993;28;20027;-72
2023/07/16 13:39:42;;;;;;;23.10;8.55;;;14.10;99.90;;;;;;4957222;28;20028;-72
2023/07/16 13:42:11;;;;;;;23.95;8.30;;;14.00;99.90;;;;;;4953990;28;20536;-72
2023/07/16 13:44:38;;;;;;;20.33;8.80;;;14.00;99.90;;;;;;4951434;28;20489;-73
2023/07/16 13:47:05;;;;;;;13.52;8.23;;;14.00;99.90;;;;;;4958810;28;20374;-70
2023/07/16 13:49:33;;;;;;;21.40;8.63;;;14.10;99.90;;;;;;4955786;28;20031;-73
2023/07/16 13:52:00;;;;;;;15.88;7.93;;;14.10;99.90;;;;;;4953670;28;20027;-72
2023/07/16 13:54:28;;;;;;;17.65;7.40;;;14.00;99.90;;;;;;4952925;28;20122;-72
2023/07/16 13:56:58;;;;;;;16.00;8.48;;;14.00;99.90;;;;;;4952435;28;20142;-71
2023/07/16 13:59:25;;;;;;;18.85;8.55;;;14.00;99.90;;;;;;4953531;28;20034;-70
2023/07/16 14:02:01;;;;;;;15.68;7.32;;;14.00;99.90;;;;;;4953122;28;20058;-71
2023/07/16 14:04:29;;;;;;;15.48;7.53;;;14.00;99.90;;;;;;4956047;28;20027;-72
2023/07/16 14:06:56;;;;;;;17.52;7.70;;;14.00;99.90;;;;;;4951151;28;20039;-72
2023/07/16 14:09:24;;;;;;;17.40;8.15;;;14.00;99.90;;;;;;4951750;28;20086;-72
2023/07/16 14:11:51;;;;;;;22.20;9.13;;;14.00;99.90;;;;;;4947566;28;20474;-72
2023/07/16 14:14:19;;;;;;;26.65;9.68;;;13.90;99.90;;;;;;4951329;28;20477;-71
2023/07/16 14:16:46;;;;;;;18.50;9.35;;;13.90;99.90;;;;;;4952244;28;20032;-72
2023/07/16 14:19:14;;;;;;;19.15;8.95;;;13.80;99.90;;;;;;4951084;28;20473;-71
2023/07/16 14:21:42;;;;;;;20.80;8.52;;;13.90;99.90;;;;;;4950437;28;20027;-72
2023/07/16 14:24:09;;;;;;;23.73;8.88;;;13.80;99.90;;;;;;4947148;28;20027;-72
2023/07/16 14:26:37;;;;;;;22.90;8.25;;;13.90;99.90;;;;;;4955170;28;20042;-72
2023/07/16 14:29:04;;;;;;;21.52;8.32;;;13.90;99.90;;;;;;4945650;28;20117;-71
2023/07/16 14:31:32;;;;;;;21.92;8.10;;;13.90;99.90;;;;;;4955072;28;20500;-72
2023/07/16 14:33:59;;;;;;;18.80;7.72;;;13.90;99.90;;;;;;4953865;28;20452;-71
2023/07/16 14:36:27;;;;;;;28.20;8.52;;;13.90;99.90;;;;;;4955039;28;20034;-71
2023/07/16 14:38:54;;;;;;;20.50;8.20;;;13.90;99.90;;;;;;4952842;28;20457;-71
2023/07/16 14:41:22;;;;;;;18.15;7.65;;;14.00;99.90;;;;;;4959178;28;20473;-71
2023/07/16 14:43:52;;;;;;;22.77;8.43;;;13.80;99.90;;;;;;4952497;28;20035;-72
2023/07/16 14:46:20;;;;;;;19.20;7.82;;;13.90;99.80;;;;;;4954966;28;20050;-70
2023/07/16 14:48:48;;;;;;;23.40;8.88;;;14.10;99.40;;;;;;4949085;28;20077;-71
2023/07/16 14:51:15;;;;;;;15.75;8.05;;;14.00;99.30;;;;;;4952644;28;20046;-71
2023/07/16 14:53:42;;;;;;;22.70;8.63;;;13.90;99.60;;;;;;4955045;28;20035;-71
2023/07/16 14:56:10;;;;;;;17.52;7.45;;;14.00;99.20;;;;;;4963592;28;20062;-71
2023/07/16 14:58:37;;;;;;;16.85;7.97;;;13.90;99.20;;;;;;4954719;28;20089;-71
2023/07/16 15:01:08;;;;;;;18.25;8.18;;;13.90;99.20;;;;;;4951211;28;20079;-71
2023/07/16 15:03:40;;;;;;;21.25;7.13;;;14.00;98.80;;;;;;4949578;28;20035;-71
2023/07/16 15:06:08;;;;;;;18.92;7.65;;;13.70;99.00;;;;;;4948726;28;20110;-71
2023/07/16 15:08:36;;;;;;;19.90;7.78;;;13.50;99.30;;;;;;4950474;28;20713;-71
2023/07/16 15:11:03;;;;;;;17.80;7.65;;;13.30;99.60;;;;;;4950286;28;20035;-71
2023/07/16 15:13:31;;;;;;;27.40;7.97;;;13.30;99.50;;;;;;4946977;28;20067;-71
2023/07/16 15:15:59;;;;;;;22.60;7.43;;;13.20;99.80;;;;;;4951705;28;20035;-71
2023/07/16 15:18:27;;;;;;;22.60;7.95;;;13.40;99.60;;;;;;4947607;28;20026;-71
2023/07/16 15:20:59;;;;;;;21.90;7.90;;;13.40;99.60;;;;;;4946446;28;20493;-70
2023/07/16 15:23:28;;;;;;;23.50;7.63;;;13.50;99.10;;;;;;4949238;28;20031;-70
2023/07/16 15:26:00;;;;;;;21.52;8.45;;;13.60;98.90;;;;;;4953613;28;20551;-70
2023/07/16 15:28:31;;;;;;;22.08;8.80;;;13.30;99.00;;;;;;4947810;28;20094;-71
2023/07/16 15:30:58;;;;;;;26.33;9.20;;;13.10;99.40;;;;;;4939978;28;20031;-70
2023/07/16 15:33:26;;;;;;;24.83;9.88;;;13.00;99.90;;;;;;4950260;28;20807;-70
2023/07/16 15:35:53;;;;;;;25.50;10.63;;;12.90;99.90;;;;;;4952939;28;20063;-70
2023/07/16 15:38:20;;;;;;;23.67;8.95;;;12.70;99.90;;;;;;4951794;28;20027;-71
2023/07/16 15:40:48;;;;;;;31.50;11.45;;;12.60;99.90;;;;;;4948307;28;20031;-72
2023/07/16 15:43:15;;;;;;;24.70;9.05;;;12.50;99.90;;;;;;4950741;28;20020;-72
2023/07/16 15:45:42;;;;;;;24.27;10.55;;;12.50;99.90;;;;;;4949848;28;20098;-70
2023/07/16 15:48:11;;;;;;;23.65;9.88;;;12.40;99.90;;;;;;4951406;28;20525;-70
2023/07/16 15:50:40;;;;;;;21.70;9.85;;;12.40;99.90;;;;;;4946734;28;20556;-70
2023/07/16 15:53:08;;;;;;;26.73;10.65;;;12.40;99.90;;;;;;4950821;28;20473;-73
2023/07/16 15:55:36;;;;;;;23.02;10.15;;;12.40;99.90;;;;;;4946357;28;20135;-71
2023/07/16 15:58:03;;;;;;;22.35;9.75;;;12.40;99.90;;;;;;4946846;28;20031;-70
2023/07/16 16:00:31;;;;;;;26.45;9.60;;;12.40;99.90;;;;;;4945970;28;20050;-71
2023/07/16 16:02:58;;;;;;;20.63;9.50;;;12.40;99.90;;;;;;4950215;28;20027;-70
2023/07/16 16:05:26;;;;;;;22.60;9.20;;;12.60;99.90;;;;;;4948095;28;20114;-71
2023/07/16 16:08:18;;;;;;;18.67;8.60;;;12.50;99.90;;;;;;4955696;28;20074;-71
2023/07/16 16:10:49;;;;;;;21.13;9.13;;;12.50;99.90;;;;;;4944233;28;20580;-70
2023/07/16 16:13:18;;;;;;;24.00;9.80;;;12.60;99.90;;;;;;4962814;28;20050;-71
2023/07/16 16:15:45;;;;;;;17.80;8.88;;;12.50;99.90;;;;;;4950181;28;20067;-70
2023/07/16 16:18:14;;;;;;;23.52;9.90;;;12.50;99.90;;;;;;4952559;28;20162;-70
2023/07/16 16:20:42;;;;;;;19.30;8.13;;;12.60;99.90;;;;;;4958875;28;20038;-71
2023/07/16 16:23:10;;;;;;;21.42;9.30;;;12.60;99.90;;;;;;4971249;28;20537;-70
2023/07/16 16:25:38;;;;;;;19.42;8.85;;;12.70;99.90;;;;;;4956303;28;20028;-71
2023/07/16 16:28:07;;;;;;;21.92;8.98;;;12.80;99.90;;;;;;4950360;28;20035;-71
2023/07/16 16:30:35;;;;;;;23.52;9.45;;;12.70;99.90;;;;;;4958107;28;20035;-71
2023/07/16 16:33:04;;;;;;;18.25;8.00;;;13.00;99.90;;;;;;4949751;28;20035;-71
2023/07/16 16:35:40;;;;;;;25.05;8.70;;;12.90;99.50;;;;;;4956476;28;20167;-71
2023/07/16 16:38:08;;;;;;;26.63;8.73;;;12.70;99.80;;;;;;4954206;28;20229;-72
2023/07/16 16:40:38;;;;;;;24.52;8.93;;;12.60;99.90;;;;;;4959207;28;20031;-71
2023/07/16 16:43:05;;;;;;;24.10;9.73;;;12.60;99.90;;;;;;4951943;28;20082;-71
2023/07/16 16:45:38;;;;;;;20.77;9.48;;;12.60;99.90;;;;;;4938257;28;20045;-70
2023/07/16 16:48:06;;;;;;;22.73;9.32;;;12.40;99.90;;;;;;4948029;28;20126;-71
2023/07/16 16:50:33;;;;;;;20.02;9.68;;;12.30;99.90;;;;;;4954730;28;20035;-70
2023/07/16 16:53:01;;;;;;;23.23;9.40;;;12.20;99.90;;;;;;4952636;28;20085;-72
2023/07/16 16:55:28;;;;;;;23.77;9.82;;;12.10;99.90;;;;;;4954465;28;20074;-70
2023/07/16 16:57:56;;;;;;;18.08;8.88;;;12.10;99.90;;;;;;4953306;28;20027;-71
2023/07/16 17:00:23;;;;;;;24.27;9.63;;;12.00;99.90;;;;;;4949632;28;20190;-70
2023/07/16 17:02:50;;;;;;;15.88;9.32;;;12.10;99.90;;;;;;4950952;28;20619;-71
2023/07/16 17:05:18;;;;;;;18.60;8.20;;;12.40;99.90;;;;;;4948425;28;20074;-70
2023/07/16 17:07:45;;;;;;;19.92;9.40;;;12.40;99.90;;;;;;4955359;28;20089;-72
2023/07/16 17:10:12;;;;;;;19.20;9.20;;;12.30;99.90;;;;;;4951780;28;20030;-71
2023/07/16 17:12:40;;;;;;;18.65;8.48;;;12.30;99.90;;;;;;4951918;28;20031;-71
2023/07/16 17:15:09;;;;;;;19.00;9.15;;;12.20;99.90;;;;;;4951466;28;20028;-71
2023/07/16 17:17:36;;;;;;;24.10;8.93;;;12.20;99.90;;;;;;4953309;28;20023;-71
2023/07/16 17:20:05;;;;;;;17.85;8.10;;;12.10;99.90;;;;;;4951275;28;20023;-71
2023/07/16 17:22:33;;;;;;;21.23;8.93;;;12.00;99.90;;;;;;4954448;28;20492;-71
2023/07/16 17:25:00;;;;;;;17.88;8.27;;;12.00;99.90;;;;;;4953900;28;20114;-70
2023/07/16 17:27:28;;;;;;;21.25;8.77;;;11.90;99.90;;;;;;4952723;28;20042;-71
2023/07/16 17:29:56;;;;;;;17.15;8.15;;;11.80;99.90;;;;;;4951981;28;20031;-70
2023/07/16 17:32:23;;;;;;;17.42;8.30;;;11.80;99.90;;;;;;4952336;28;20036;-72
2023/07/16 17:34:50;;;;;;;19.60;8.82;;;11.80;99.90;;;;;;4952081;28;20381;-72
2023/07/16 17:37:18;;;;;;;22.90;8.85;;;11.80;99.90;;;;;;4952024;28;20033;-71
2023/07/16 17:39:48;;;;;;;16.75;8.77;;;11.60;99.90;;;;;;4948790;28;20027;-71
2023/07/16 17:42:16;;;;;;;16.95;8.85;;;11.50;99.90;;;;;;4951466;28;20419;-72
2023/07/16 17:44:46;;;;;;;19.45;9.38;;;11.40;99.90;;;;;;4949121;28;20117;-70
2023/07/16 17:47:14;;;;;;;19.70;8.00;;;11.40;99.90;;;;;;4960421;28;20042;-70
2023/07/16 17:49:41;;;;;;;19.15;8.65;;;11.30;99.90;;;;;;4949932;28;20474;-71
2023/07/16 17:52:09;;;;;;;16.50;8.60;;;11.10;99.90;;;;;;4951132;28;20042;-70
2023/07/16 17:54:36;;;;;;;18.83;8.82;;;11.10;99.90;;;;;;4950462;28;20031;-70
2023/07/16 17:57:04;;;;;;;23.05;9.00;;;11.30;99.90;;;;;;4951221;28;20571;-72
2023/07/16 17:59:31;;;;;;;18.90;8.15;;;11.60;99.60;;;;;;4952491;28;20037;-71
2023/07/16 18:01:59;;;;;;;19.38;8.20;;;11.70;99.40;;;;;;4953371;28;20397;-70
2023/07/16 18:04:27;;;;;;;24.52;10.00;;;11.50;99.10;;;;;;4951924;28;20035;-70
2023/07/16 18:06:54;;;;;;;16.70;8.60;;;11.30;99.70;;;;;;4958097;28;20385;-70
2023/07/16 18:09:23;;;;;;;13.77;8.70;;;11.00;99.90;;;;;;4951956;28;21095;-70
2023/07/16 18:11:50;;;;;;;19.17;8.52;;;10.90;99.90;;;;;;4955664;28;20118;-70
2023/07/16 18:14:18;;;;;;;20.27;9.05;;;10.90;99.90;;;;;;4953169;28;20499;-70
2023/07/16 18:16:45;;;;;;;14.20;8.15;;;10.80;99.90;;;;;;4954015;28;20027;-70
2023/07/16 18:19:13;;;;;;;19.30;9.10;;;10.70;99.90;;;;;;4952053;28;20031;-71
2023/07/16 18:21:41;;;;;;;16.90;8.02;;;10.60;99.90;;;;;;4950697;28;20055;-70
2023/07/16 18:24:08;;;;;;;21.33;9.48;;;10.60;99.90;;;;;;4947931;28;20035;-70
2023/07/16 18:26:38;;;;;;;18.67;7.93;;;10.50;99.90;;;;;;4951094;28;20092;-70
2023/07/16 18:29:05;;;;;;;18.60;8.73;;;10.50;99.90;;;;;;4949132;28;20031;-70
2023/07/16 18:31:33;;;;;;;21.30;10.07;;;10.50;99.90;;;;;;4953712;28;20402;-71
2023/07/16 18:34:01;;;;;;;29.50;14.43;;;10.50;99.90;;;;;;4947599;28;20078;-70
2023/07/16 18:36:28;;;;;;;30.13;18.75;;;10.70;99.90;;;;;;4950465;28;20027;-70
2023/07/16 18:38:55;;;;;;;29.92;14.95;;;10.90;99.60;;;;;;4950247;28;20046;-70
2023/07/16 18:41:23;;;;;;;27.65;14.25;;;10.80;99.40;;;;;;4952125;28;20046;-70
2023/07/16 18:43:50;;;;;;;35.25;25.58;;;10.70;99.70;;;;;;4949719;28;20025;-69
2023/07/16 18:46:17;;;;;;;;;;;10.60;99.70;;;;;;4950823;28;20046;-70